Vremea acum in Seini - Romania

Vrei sa afli care e starea vremii acum in Maramures - Romania? Dorim sa iti furnizam starea vremii pentru Maramures - Romania. Starea vremii Maramures - Romania pentru astazi.

Vremea acum in Seini

Temperatura: 11.2 °C

Este: Senin
Se simte ca: 11.2 °C
Innorat: 0 %
Precipitatii: 0 %
Presiune atmosferica: 1016 hPa
Umiditate: 62%
Vizibilitate: 10 km
Vantul bate din ENE cu 4.7 km/h

Evolutia vremii in Seini pe ore

Ora: 04:00
Senin
Temperatura: 8.6°C
Sansa de precipitatii: 0%
Ora Descriere Temp Se simte Precipitatii Umiditate Vant
00:00Senin10°9.8°0%67%ENE 5 KM/H
01:00Senin11.2°9.5°0%62%ENE 4.7 KM/H
02:00Senin9.3°9.3°0%67%E 4 KM/H
03:00Senin8.8°8.8°0%68%ENE 4 KM/H
04:00Senin8.6°8.3°0%68%E 4.7 KM/H
05:00Senin8.3°7.7°0%69%E 5.4 KM/H
06:00Senin7.4°0%70%E 5 KM/H
07:00Senin8.8°8.5°0%70%E 4.7 KM/H
08:00Senin13.1°13.6°0%63%SE 4 KM/H
09:00Senin16.6°16.6°0%56%SSE 4.7 KM/H
10:00Senin18.6°18.6°0%51%S 5.4 KM/H
11:00Senin20.1°20.1°0%46%S 6.5 KM/H
12:00Senin21.3°21.3°0%43%SSW 7.6 KM/H
13:00Senin22.1°24.1°0%40%SSW 8.3 KM/H
14:00Senin22.8°24.2°0%39%SSW 7.9 KM/H
15:00Senin23.2°24.3°0%38%SSW 6.8 KM/H
16:00Senin23.5°24.4°0%37%SW 6.1 KM/H
17:00Senin23.3°24.3°0%37%SW 5.4 KM/H
18:00Senin22.8°24.3°0%40%WSW 4.7 KM/H
19:00Senin21.9°21.9°0%54%WSW 2.2 KM/H
20:00Senin16.1°16.1°0%60%ENE 2.2 KM/H
21:00Senin13.7°13.8°0%61%ENE 5.4 KM/H
22:00Senin13°12.9°0%61%ENE 5.8 KM/H
23:00Senin12.5°12.5°0%61%E 5.4 KM/H




tutorials